createdAt,value
2022-08-03T00:00:26.219Z,17.72
2022-08-03T00:02:53.098Z,17.72
2022-08-03T00:05:19.888Z,17.71
2022-08-03T00:07:46.590Z,17.68
2022-08-03T00:10:15.375Z,17.67
2022-08-03T00:12:42.109Z,17.67
2022-08-03T00:15:11.198Z,17.63
2022-08-03T00:17:53.712Z,17.63
2022-08-03T00:20:21.621Z,17.57
2022-08-03T00:22:48.941Z,17.50
2022-08-03T00:25:16.229Z,17.49
2022-08-03T00:27:42.997Z,17.45
2022-08-03T00:30:10.470Z,17.44
2022-08-03T00:32:37.138Z,17.43
2022-08-03T00:35:09.805Z,17.38
2022-08-03T00:37:41.514Z,17.27
2022-08-03T00:40:13.532Z,17.16
2022-08-03T00:42:53.601Z,17.13
2022-08-03T00:45:41.342Z,17.11
2022-08-03T00:48:29.562Z,17.04
2022-08-03T00:50:56.424Z,17.06
2022-08-03T00:53:23.088Z,17.04
2022-08-03T00:55:49.882Z,17.02
2022-08-03T00:58:16.737Z,17.02
2022-08-03T01:00:43.484Z,16.89
2022-08-03T01:03:11.867Z,16.69
2022-08-03T01:05:52.102Z,16.74
2022-08-03T01:08:44.086Z,16.84
2022-08-03T01:11:19.182Z,16.86
2022-08-03T01:14:18.406Z,16.83
2022-08-03T01:17:02.025Z,16.82
2022-08-03T01:19:49.648Z,16.72
2022-08-03T01:22:50.468Z,16.76
2022-08-03T01:25:38.587Z,16.77
2022-08-03T01:28:14.057Z,16.74
2022-08-03T01:30:45.877Z,16.69
2022-08-03T01:33:33.660Z,16.55
2022-08-03T01:36:04.744Z,16.53
2022-08-03T01:38:31.376Z,16.52
2022-08-03T01:41:03.718Z,16.43
2022-08-03T01:44:28.057Z,16.49
2022-08-03T01:46:20.592Z,16.50
2022-08-03T01:48:49.002Z,16.49
2022-08-03T01:51:18.387Z,16.48
2022-08-03T01:53:46.977Z,16.51
2022-08-03T01:56:16.280Z,16.49
2022-08-03T01:58:45.078Z,16.47
2022-08-03T02:01:13.692Z,16.48
2022-08-03T02:04:00.495Z,16.45
2022-08-03T02:06:59.988Z,16.42
2022-08-03T02:09:19.953Z,16.25
2022-08-03T02:11:47.589Z,16.23
2022-08-03T02:14:15.893Z,16.22
2022-08-03T02:16:44.615Z,16.23
2022-08-03T02:19:11.932Z,16.20
2022-08-03T02:21:56.982Z,16.17
2022-08-03T02:24:26.068Z,16.09
2022-08-03T02:26:55.995Z,16.11
2022-08-03T02:29:39.277Z,16.05
2022-08-03T02:32:10.630Z,16.07
2022-08-03T02:34:38.225Z,16.04
2022-08-03T02:37:07.004Z,16.02
2022-08-03T02:39:36.338Z,15.99
2022-08-03T02:42:03.688Z,16.00
2022-08-03T02:44:33.570Z,15.98
2022-08-03T02:47:09.736Z,15.93
2022-08-03T02:49:50.536Z,15.91
2022-08-03T02:52:19.699Z,15.87
2022-08-03T02:54:49.367Z,15.84
2022-08-03T02:57:19.271Z,15.85
2022-08-03T02:59:46.760Z,15.85
2022-08-03T03:02:15.973Z,15.84
2022-08-03T03:05:52.793Z,15.81
2022-08-03T03:07:34.655Z,15.81
2022-08-03T03:10:20.629Z,15.77
2022-08-03T03:12:50.212Z,15.77
2022-08-03T03:15:17.042Z,15.74
2022-08-03T03:17:44.285Z,15.72
2022-08-03T03:20:12.050Z,15.58
2022-08-03T03:22:40.249Z,15.55
2022-08-03T03:25:12.075Z,15.55
2022-08-03T03:27:39.935Z,15.53
2022-08-03T03:30:07.397Z,15.54
2022-08-03T03:32:36.780Z,15.54
2022-08-03T03:35:05.207Z,15.56
2022-08-03T03:37:31.967Z,15.57
2022-08-03T03:39:58.729Z,15.51
2022-08-03T03:42:25.960Z,15.46
2022-08-03T03:44:52.678Z,15.39
2022-08-03T03:47:32.616Z,15.36
2022-08-03T03:50:00.124Z,15.34
2022-08-03T03:52:26.913Z,15.34
2022-08-03T03:54:56.402Z,15.37
2022-08-03T03:57:27.580Z,15.37
2022-08-03T03:59:54.334Z,15.29
2022-08-03T04:02:21.156Z,15.32
2022-08-03T04:05:06.322Z,15.36
2022-08-03T04:08:07.403Z,15.22
2022-08-03T04:10:55.518Z,15.20
2022-08-03T04:13:23.093Z,15.21
2022-08-03T04:15:50.952Z,15.22
2022-08-03T04:18:19.781Z,15.28
2022-08-03T04:20:49.989Z,15.33
2022-08-03T04:23:21.126Z,15.36
2022-08-03T04:25:50.879Z,15.43
2022-08-03T04:28:30.636Z,15.44
2022-08-03T04:30:59.700Z,15.49
2022-08-03T04:33:29.281Z,15.38
2022-08-03T04:36:02.549Z,15.49
2022-08-03T04:38:33.016Z,15.44
2022-08-03T04:41:01.067Z,15.49
2022-08-03T04:43:28.715Z,15.42
2022-08-03T04:45:56.888Z,15.50
2022-08-03T04:48:24.488Z,15.57
2022-08-03T04:50:51.908Z,15.66
2022-08-03T04:53:19.519Z,15.65
2022-08-03T04:55:46.879Z,15.69
2022-08-03T04:58:13.721Z,15.73
2022-08-03T05:00:40.381Z,15.84
2022-08-03T05:03:24.058Z,15.95
2022-08-03T05:06:01.810Z,15.89
2022-08-03T05:08:41.181Z,15.82
2022-08-03T05:11:15.637Z,15.71
2022-08-03T05:13:42.539Z,15.77
2022-08-03T05:16:09.232Z,15.95
2022-08-03T05:18:36.049Z,15.84
2022-08-03T05:21:02.926Z,15.89
2022-08-03T05:23:29.603Z,15.87
2022-08-03T05:25:56.474Z,15.78
2022-08-03T05:28:23.497Z,15.85
2022-08-03T05:30:50.321Z,15.87
2022-08-03T05:33:16.997Z,16.00
2022-08-03T05:35:55.769Z,15.96
2022-08-03T05:38:34.257Z,16.07
2022-08-03T05:41:22.580Z,16.26
2022-08-03T05:43:52.554Z,16.45
2022-08-03T05:46:19.437Z,16.66
2022-08-03T05:48:46.239Z,16.87
2022-08-03T05:51:13.478Z,16.88
2022-08-03T05:53:42.197Z,17.15
2022-08-03T05:56:14.172Z,17.38
2022-08-03T05:58:43.841Z,19.22
2022-08-03T06:01:10.561Z,22.64
2022-08-03T06:03:37.264Z,24.31
2022-08-03T06:06:04.093Z,26.03
2022-08-03T06:08:30.811Z,26.53
2022-08-03T06:10:57.537Z,28.79
2022-08-03T06:13:24.158Z,29.59
2022-08-03T06:15:50.876Z,30.22
2022-08-03T06:18:17.821Z,29.98
2022-08-03T06:20:44.440Z,30.06
2022-08-03T06:23:17.615Z,31.29
2022-08-03T06:25:45.323Z,30.91
2022-08-03T06:31:01.090Z,32.18
2022-08-03T06:34:30.968Z,31.97
2022-08-03T06:36:15.322Z,31.84
2022-08-03T06:38:42.082Z,32.71
2022-08-03T06:41:08.828Z,32.02
2022-08-03T06:44:02.582Z,32.98
2022-08-03T06:46:25.065Z,34.49
2022-08-03T06:48:53.097Z,34.91
2022-08-03T06:51:19.878Z,35.42
2022-08-03T06:53:46.578Z,34.81
2022-08-03T06:56:13.242Z,35.11
2022-08-03T06:58:39.963Z,35.20
2022-08-03T07:01:06.751Z,35.58
2022-08-03T07:03:33.464Z,36.18
2022-08-03T07:06:00.151Z,37.75
2022-08-03T07:08:33.913Z,37.74
2022-08-03T07:11:01.695Z,36.83
2022-08-03T07:13:28.422Z,38.62
2022-08-03T07:15:56.438Z,39.10
2022-08-03T07:18:28.863Z,40.49
2022-08-03T07:20:59.615Z,39.98
2022-08-03T07:23:26.320Z,40.07
2022-08-03T07:25:53.013Z,38.66
2022-08-03T07:28:20.481Z,37.54
2022-08-03T07:30:47.446Z,36.87
2022-08-03T07:33:15.094Z,37.80
2022-08-03T07:35:42.286Z,35.83
2022-08-03T07:38:09.004Z,37.78
2022-08-03T07:40:35.861Z,37.82
2022-08-03T07:43:03.699Z,39.14
2022-08-03T07:45:31.139Z,38.58
2022-08-03T07:47:57.879Z,37.23
2022-08-03T07:50:24.590Z,35.98
2022-08-03T07:52:52.996Z,36.86
2022-08-03T07:55:21.483Z,35.30
2022-08-03T07:57:59.133Z,34.87
2022-08-03T08:00:26.262Z,34.49
2022-08-03T08:02:52.877Z,34.81
2022-08-03T08:05:19.692Z,34.02
2022-08-03T08:07:51.005Z,33.79
2022-08-03T08:10:18.857Z,33.90
2022-08-03T08:12:45.805Z,34.96
2022-08-03T08:15:12.539Z,34.09
2022-08-03T08:18:08.383Z,34.64
2022-08-03T08:20:38.113Z,35.52
2022-08-03T08:23:31.279Z,35.40
2022-08-03T08:25:54.689Z,36.87
2022-08-03T08:28:32.558Z,39.10
2022-08-03T08:31:00.560Z,39.08
2022-08-03T08:33:37.297Z,36.19
2022-08-03T08:36:15.506Z,35.46
2022-08-03T08:38:44.967Z,35.65
2022-08-03T08:41:13.533Z,31.37
2022-08-03T08:43:41.040Z,34.52
2022-08-03T08:46:11.821Z,33.98
2022-08-03T08:48:43.947Z,34.49
2022-08-03T08:51:12.366Z,33.93
2022-08-03T08:53:43.077Z,36.00
2022-08-03T08:56:15.442Z,35.60
2022-08-03T08:58:47.521Z,36.43
2022-08-03T09:01:14.280Z,36.55
2022-08-03T09:03:41.312Z,37.93
2022-08-03T09:06:07.981Z,36.81
2022-08-03T09:08:34.815Z,38.65
2022-08-03T09:11:01.520Z,40.12
2022-08-03T09:13:29.239Z,42.39
2022-08-03T09:16:16.734Z,37.55
2022-08-03T09:18:46.762Z,37.73
2022-08-03T09:21:30.685Z,37.25
2022-08-03T09:24:02.862Z,38.59
2022-08-03T09:26:33.622Z,39.82
2022-08-03T09:29:08.128Z,40.67
2022-08-03T09:31:37.784Z,41.45
2022-08-03T09:34:08.912Z,38.85
2022-08-03T09:36:46.411Z,38.64
2022-08-03T09:39:16.025Z,38.74
2022-08-03T09:42:04.752Z,38.07
2022-08-03T09:44:46.845Z,37.76
2022-08-03T09:47:28.385Z,36.44
2022-08-03T09:50:03.865Z,36.72
2022-08-03T09:52:38.867Z,36.87
2022-08-03T09:55:23.828Z,38.90
2022-08-03T09:58:11.310Z,38.33
2022-08-03T10:01:00.584Z,38.93
2022-08-03T10:03:29.782Z,38.58
2022-08-03T10:05:59.839Z,38.94
2022-08-03T10:08:27.202Z,39.19
2022-08-03T10:10:58.696Z,38.01
2022-08-03T10:13:25.539Z,37.95
2022-08-03T10:16:23.182Z,37.22
2022-08-03T10:18:38.996Z,37.13
2022-08-03T10:21:10.413Z,33.66
2022-08-03T10:23:40.902Z,35.45
2022-08-03T10:26:09.406Z,36.96
2022-08-03T10:28:44.973Z,35.88
2022-08-03T10:31:14.045Z,37.16
2022-08-03T10:33:49.538Z,38.53
2022-08-03T10:36:22.115Z,38.93
2022-08-03T10:38:52.960Z,37.05
2022-08-03T10:41:22.012Z,37.30
2022-08-03T10:44:03.882Z,37.47
2022-08-03T10:46:32.669Z,36.78
2022-08-03T10:49:00.188Z,38.54
2022-08-03T10:51:31.876Z,38.40
2022-08-03T10:53:59.807Z,38.69
2022-08-03T10:56:53.556Z,38.58
2022-08-03T10:59:47.039Z,36.18
2022-08-03T11:02:14.861Z,35.78
2022-08-03T11:04:42.712Z,34.03
2022-08-03T11:07:18.770Z,32.20
2022-08-03T11:09:51.032Z,32.87
2022-08-03T11:12:33.013Z,33.55
2022-08-03T11:15:06.658Z,32.02
2022-08-03T11:17:34.002Z,32.36
2022-08-03T11:20:13.813Z,32.64
2022-08-03T11:22:51.459Z,32.72
2022-08-03T11:25:54.345Z,31.99
2022-08-03T11:28:31.102Z,32.15
2022-08-03T11:31:53.690Z,32.62
2022-08-03T11:34:20.452Z,32.34
2022-08-03T11:37:23.289Z,31.94
2022-08-03T11:39:53.015Z,31.98
2022-08-03T11:42:22.809Z,30.62
2022-08-03T11:45:00.625Z,30.79
2022-08-03T11:47:29.556Z,31.65
2022-08-03T11:50:02.015Z,31.84
2022-08-03T11:52:36.301Z,32.27
2022-08-03T11:55:08.326Z,31.16
2022-08-03T11:59:01.342Z,31.44
2022-08-03T12:00:25.913Z,31.88
2022-08-03T12:03:13.799Z,30.10
2022-08-03T12:05:51.393Z,29.67
2022-08-03T12:08:28.264Z,31.01
2022-08-03T12:10:57.004Z,32.15
2022-08-03T12:14:43.923Z,32.38
2022-08-03T12:16:19.591Z,31.40
2022-08-03T12:18:55.339Z,31.42
2022-08-03T12:21:24.627Z,31.53
2022-08-03T12:23:56.149Z,32.14
2022-08-03T12:26:22.907Z,32.35
2022-08-03T12:28:50.212Z,32.73
2022-08-03T12:31:17.171Z,32.68
2022-08-03T12:34:05.128Z,33.00
2022-08-03T12:36:34.717Z,32.58
2022-08-03T12:39:07.528Z,32.59
2022-08-03T12:41:39.831Z,32.43
2022-08-03T12:44:08.043Z,31.62
2022-08-03T12:46:37.121Z,31.49
2022-08-03T12:49:06.949Z,30.35
2022-08-03T12:51:36.707Z,30.99
2022-08-03T12:54:04.265Z,31.23
2022-08-03T12:56:31.140Z,32.30
2022-08-03T12:58:57.783Z,32.84
2022-08-03T13:01:24.595Z,32.97
2022-08-03T13:03:53.845Z,32.61
2022-08-03T13:06:22.199Z,32.86
2022-08-03T13:08:49.917Z,31.38
2022-08-03T13:11:50.532Z,32.07
2022-08-03T13:14:15.267Z,31.41
2022-08-03T13:16:47.892Z,32.23
2022-08-03T13:19:15.389Z,32.76
2022-08-03T13:21:53.713Z,32.62
2022-08-03T13:24:30.578Z,32.11
2022-08-03T13:26:59.044Z,32.06
2022-08-03T13:29:25.781Z,32.56
2022-08-03T13:31:52.452Z,32.73
2022-08-03T13:34:23.000Z,32.29
2022-08-03T13:37:08.421Z,32.48
2022-08-03T13:39:58.323Z,32.19
2022-08-03T13:42:22.659Z,31.82
2022-08-03T13:44:49.335Z,32.14
2022-08-03T13:47:16.209Z,31.33
2022-08-03T13:49:59.982Z,31.65
2022-08-03T13:52:33.485Z,32.12
2022-08-03T13:55:01.382Z,31.63
2022-08-03T13:58:05.170Z,32.23
2022-08-03T14:00:27.165Z,32.55
2022-08-03T14:03:13.813Z,31.81
2022-08-03T14:05:43.239Z,31.57
2022-08-03T14:08:10.472Z,31.52
2022-08-03T14:10:40.269Z,31.26
2022-08-03T14:13:07.710Z,31.67
2022-08-03T14:15:37.208Z,31.80
2022-08-03T14:18:06.585Z,31.79
2022-08-03T14:20:36.635Z,31.33
2022-08-03T14:23:04.368Z,30.97
2022-08-03T14:25:32.282Z,31.09
2022-08-03T14:28:11.295Z,30.17
2022-08-03T14:30:38.009Z,30.73
2022-08-03T14:33:04.635Z,30.96
2022-08-03T14:35:31.502Z,31.10
2022-08-03T14:37:58.181Z,31.04
2022-08-03T14:40:24.878Z,31.45
2022-08-03T14:42:51.602Z,31.62
2022-08-03T14:45:20.160Z,31.48
2022-08-03T14:50:32.950Z,30.72
2022-08-03T14:50:41.983Z,31.19
2022-08-03T14:53:11.126Z,31.68
2022-08-03T14:55:38.543Z,31.57
2022-08-03T14:58:19.366Z,30.95
2022-08-03T15:00:46.876Z,30.60
2022-08-03T15:03:16.706Z,30.17
2022-08-03T15:05:44.459Z,31.19
2022-08-03T15:08:11.588Z,31.56
2022-08-03T15:10:44.549Z,31.52
2022-08-03T15:13:13.344Z,31.93
2022-08-03T15:15:40.639Z,32.01
2022-08-03T15:18:07.630Z,31.61
2022-08-03T15:20:49.626Z,31.44
2022-08-03T15:23:17.856Z,31.91
2022-08-03T15:26:32.314Z,31.29
2022-08-03T15:28:32.980Z,31.62
2022-08-03T15:31:00.166Z,31.11
2022-08-03T15:33:26.818Z,30.69
2022-08-03T15:35:54.054Z,30.94
2022-08-03T15:38:26.056Z,31.22
2022-08-03T15:40:56.806Z,31.29
2022-08-03T15:43:23.909Z,31.35
2022-08-03T15:46:18.981Z,31.30
2022-08-03T15:48:38.357Z,30.98
2022-08-03T15:51:05.560Z,31.17
2022-08-03T15:53:33.579Z,31.13
2022-08-03T15:56:00.990Z,31.21
2022-08-03T15:59:03.758Z,31.30
2022-08-03T16:01:19.857Z,31.32
2022-08-03T16:03:47.044Z,31.37
2022-08-03T16:06:13.896Z,31.19
2022-08-03T16:08:40.644Z,31.05
2022-08-03T16:11:07.451Z,31.39
2022-08-03T16:14:13.852Z,31.10
2022-08-03T16:16:20.894Z,31.22
2022-08-03T16:18:47.584Z,31.22
2022-08-03T16:21:19.310Z,30.90
2022-08-03T16:23:47.194Z,30.98
2022-08-03T16:26:14.632Z,30.69
2022-08-03T16:28:41.506Z,30.61
2022-08-03T16:31:09.138Z,30.82
2022-08-03T16:33:36.084Z,30.32
2022-08-03T16:36:03.092Z,30.84
2022-08-03T16:38:30.507Z,30.63
2022-08-03T16:40:57.297Z,30.71
2022-08-03T16:43:24.821Z,30.89
2022-08-03T16:45:51.930Z,30.82
2022-08-03T16:48:19.252Z,30.80
2022-08-03T16:50:46.276Z,30.60
2022-08-03T16:53:17.010Z,30.14
2022-08-03T16:55:53.200Z,30.32
2022-08-03T16:58:34.628Z,30.41
2022-08-03T17:01:24.372Z,30.39
2022-08-03T17:04:03.133Z,30.52
2022-08-03T17:06:44.974Z,30.45
2022-08-03T17:09:17.904Z,30.38
2022-08-03T17:11:47.827Z,30.58
2022-08-03T17:14:17.133Z,30.65
2022-08-03T17:16:52.506Z,30.59
2022-08-03T17:19:23.966Z,30.53
2022-08-03T17:22:04.275Z,30.36
2022-08-03T17:24:34.881Z,30.19
2022-08-03T17:27:08.966Z,30.01
2022-08-03T17:29:45.279Z,29.61
2022-08-03T17:32:18.172Z,29.67
2022-08-03T17:34:48.956Z,29.63
2022-08-03T17:37:27.017Z,29.50
2022-08-03T17:40:04.159Z,29.47
2022-08-03T17:42:33.058Z,29.29
2022-08-03T17:45:03.753Z,29.19
2022-08-03T17:50:25.101Z,28.84
2022-08-03T17:53:07.569Z,28.78
2022-08-03T17:55:54.749Z,28.73
2022-08-03T17:59:51.443Z,28.73
2022-08-03T18:03:14.375Z,28.56
2022-08-03T18:06:11.943Z,28.57
2022-08-03T18:08:46.208Z,28.42
2022-08-03T18:11:16.739Z,28.28
2022-08-03T18:14:09.932Z,28.25
2022-08-03T18:16:57.720Z,28.17
2022-08-03T18:20:01.001Z,28.13
2022-08-03T18:22:16.041Z,28.07
2022-08-03T18:24:44.643Z,27.99
2022-08-03T18:27:15.792Z,27.82
2022-08-03T18:29:45.806Z,27.76
2022-08-03T18:32:16.907Z,27.64
2022-08-03T18:34:53.633Z,27.42
2022-08-03T18:37:25.176Z,27.33
2022-08-03T18:39:55.903Z,27.23
2022-08-03T18:42:26.270Z,27.12
2022-08-03T18:44:56.782Z,27.02
2022-08-03T18:50:50.026Z,26.66
2022-08-03T18:54:03.129Z,26.58
2022-08-03T18:56:34.021Z,26.47
2022-08-03T18:59:09.712Z,26.31
2022-08-03T19:02:00.572Z,26.26
2022-08-03T19:04:41.027Z,26.20
2022-08-03T19:07:09.582Z,26.09
2022-08-03T19:09:44.867Z,25.98
2022-08-03T19:12:27.320Z,25.92
2022-08-03T19:15:03.713Z,25.73
2022-08-03T19:17:35.882Z,25.57
2022-08-03T19:20:06.205Z,25.46
2022-08-03T19:22:33.851Z,25.39
2022-08-03T19:25:04.574Z,25.26
2022-08-03T19:27:32.323Z,25.18
2022-08-03T19:30:03.042Z,25.10
2022-08-03T19:32:32.430Z,25.04
2022-08-03T19:35:01.191Z,25.01
2022-08-03T19:37:38.283Z,24.94
2022-08-03T19:40:10.343Z,24.89
2022-08-03T19:42:44.465Z,24.77
2022-08-03T19:45:15.486Z,24.70
2022-08-03T19:47:47.499Z,24.59
2022-08-03T19:50:16.411Z,24.49
2022-08-03T19:52:46.739Z,24.28
2022-08-03T19:55:15.670Z,24.10
2022-08-03T19:57:45.583Z,24.02
2022-08-03T20:00:13.948Z,24.02
2022-08-03T20:02:41.371Z,23.99
2022-08-03T20:05:14.817Z,23.98
2022-08-03T20:07:47.587Z,23.98
2022-08-03T20:10:17.386Z,23.94
2022-08-03T20:12:45.622Z,23.91
2022-08-03T20:15:12.898Z,23.88
2022-08-03T20:17:55.030Z,23.83
2022-08-03T20:20:30.999Z,23.79
2022-08-03T20:22:59.644Z,23.67
2022-08-03T20:25:37.947Z,23.63
2022-08-03T20:28:13.980Z,23.53
2022-08-03T20:30:43.372Z,23.47
2022-08-03T20:33:10.354Z,23.37
2022-08-03T20:35:37.281Z,23.32
2022-08-03T20:38:03.981Z,23.28
2022-08-03T20:40:31.459Z,23.24
2022-08-03T20:42:59.824Z,23.19
2022-08-03T20:45:58.282Z,23.16
2022-08-03T20:48:17.633Z,23.09
2022-08-03T20:50:49.446Z,23.04
2022-08-03T20:53:19.936Z,22.99
2022-08-03T20:56:04.220Z,22.91
2022-08-03T20:58:30.956Z,22.87
2022-08-03T21:00:58.252Z,22.83
2022-08-03T21:03:24.877Z,22.81
2022-08-03T21:06:11.996Z,22.78
2022-08-03T21:08:48.122Z,22.73
2022-08-03T21:11:18.414Z,22.69
2022-08-03T21:13:04.349Z,28.98
2022-08-03T21:13:09.559Z,26.85
2022-08-03T21:13:56.233Z,22.62
2022-08-03T21:16:27.671Z,22.54
2022-08-03T21:18:58.991Z,22.47
2022-08-03T21:21:28.869Z,22.41
2022-08-03T21:23:58.321Z,22.28
2022-08-03T21:26:26.208Z,22.26
2022-08-03T21:28:56.800Z,22.24
2022-08-03T21:31:26.575Z,22.23
2022-08-03T21:33:56.484Z,22.18
2022-08-03T21:36:25.596Z,21.93
2022-08-03T21:38:56.270Z,21.90
2022-08-03T21:41:24.406Z,21.91
2022-08-03T21:43:51.057Z,21.90
2022-08-03T21:46:19.896Z,21.82
2022-08-03T21:48:53.411Z,21.81
2022-08-03T21:51:24.840Z,21.81
2022-08-03T21:54:03.338Z,21.78
2022-08-03T21:56:41.729Z,21.71
2022-08-03T21:59:15.708Z,21.64
2022-08-03T22:01:43.343Z,21.58
2022-08-03T22:04:16.613Z,21.54
2022-08-03T22:06:57.893Z,21.48
2022-08-03T22:09:24.596Z,21.45
2022-08-03T22:11:54.167Z,21.42
2022-08-03T22:14:21.636Z,21.38
2022-08-03T22:16:49.146Z,21.33
2022-08-03T22:19:15.882Z,21.25
2022-08-03T22:21:48.792Z,21.20
2022-08-03T22:24:18.656Z,21.00
2022-08-03T22:27:05.698Z,21.00
2022-08-03T22:29:34.727Z,20.97
2022-08-03T22:32:01.565Z,20.93
2022-08-03T22:34:29.257Z,20.91
2022-08-03T22:37:02.090Z,20.88
2022-08-03T22:39:30.030Z,20.87
2022-08-03T22:41:58.965Z,20.85
2022-08-03T22:44:27.217Z,20.82
2022-08-03T22:46:55.451Z,20.79
2022-08-03T22:49:22.642Z,20.77
2022-08-03T22:51:51.754Z,20.74
2022-08-03T22:54:19.045Z,20.74
2022-08-03T22:56:47.109Z,20.69
2022-08-03T22:59:39.968Z,20.64
2022-08-03T23:02:02.450Z,20.61
2022-08-03T23:04:51.125Z,20.57
2022-08-03T23:07:38.992Z,20.52
2022-08-03T23:10:12.460Z,20.46
2022-08-03T23:12:41.598Z,20.42
2022-08-03T23:15:13.332Z,20.35
2022-08-03T23:18:01.416Z,20.28
2022-08-03T23:20:29.561Z,20.23
2022-08-03T23:22:57.927Z,20.19
2022-08-03T23:25:25.185Z,20.13
2022-08-03T23:28:05.268Z,20.12
2022-08-03T23:30:36.324Z,20.08
2022-08-03T23:33:04.102Z,20.06
2022-08-03T23:36:29.164Z,20.03
2022-08-03T23:38:37.313Z,19.99
2022-08-03T23:41:04.797Z,19.91
2022-08-03T23:43:44.730Z,19.90
2022-08-03T23:46:21.351Z,19.86
2022-08-03T23:48:48.104Z,19.83
2022-08-03T23:51:42.201Z,19.77
2022-08-03T23:54:17.991Z,19.78
2022-08-03T23:57:07.489Z,19.72
